sensor_id;sensor_type;location;lat;lon;timestamp;pressure;altitude;pressure_sealevel;temperature;humidity
13553;BME280;6847;48.830;9.116;2024-02-26T00:00:50;96028.78;;;11.26;44.43
13553;BME280;6847;48.830;9.116;2024-02-26T00:03:40;96049.38;;;11.19;45.19
13553;BME280;6847;48.830;9.116;2024-02-26T00:06:29;96042.28;;;11.05;45.20
13553;BME280;6847;48.830;9.116;2024-02-26T00:09:16;96047.25;;;10.95;44.59
13553;BME280;6847;48.830;9.116;2024-02-26T00:12:03;96032.97;;;10.86;45.36
13553;BME280;6847;48.830;9.116;2024-02-26T00:14:49;96030.41;;;10.81;45.71
13553;BME280;6847;48.830;9.116;2024-02-26T00:17:36;96031.53;;;10.80;45.12
13553;BME280;6847;48.830;9.116;2024-02-26T00:20:23;95883.97;;;9.89;45.21
13553;BME280;6847;48.830;9.116;2024-02-26T00:23:10;96018.19;;;10.74;44.90
13553;BME280;6847;48.830;9.116;2024-02-26T00:25:56;96027.41;;;10.73;44.92
13553;BME280;6847;48.830;9.116;2024-02-26T00:28:41;95975.47;;;10.42;45.47
13553;BME280;6847;48.830;9.116;2024-02-26T00:31:26;95979.56;;;10.48;45.37
13553;BME280;6847;48.830;9.116;2024-02-26T00:34:12;96022.31;;;10.72;45.07
13553;BME280;6847;48.830;9.116;2024-02-26T00:37:00;96033.16;;;10.72;45.34
13553;BME280;6847;48.830;9.116;2024-02-26T00:39:49;95967.66;;;10.41;45.72
13553;BME280;6847;48.830;9.116;2024-02-26T00:42:35;96009.75;;;10.67;45.56
13553;BME280;6847;48.830;9.116;2024-02-26T00:45:22;96032.34;;;10.71;45.46
13553;BME280;6847;48.830;9.116;2024-02-26T00:48:07;96024.88;;;10.68;45.32
13553;BME280;6847;48.830;9.116;2024-02-26T00:50:52;95922.91;;;9.96;45.39
13553;BME280;6847;48.830;9.116;2024-02-26T00:53:39;95914.47;;;9.89;46.13
13553;BME280;6847;48.830;9.116;2024-02-26T00:56:26;96032.19;;;10.68;46.52
13553;BME280;6847;48.830;9.116;2024-02-26T00:59:12;95975.81;;;10.32;45.67
13553;BME280;6847;48.830;9.116;2024-02-26T01:01:58;96030.75;;;10.70;45.56
13553;BME280;6847;48.830;9.116;2024-02-26T01:04:48;95992.66;;;10.46;46.22
13553;BME280;6847;48.830;9.116;2024-02-26T01:08:00;96040.94;;;10.73;46.25
13553;BME280;6847;48.830;9.116;2024-02-26T01:10:46;96036.16;;;10.70;46.27
13553;BME280;6847;48.830;9.116;2024-02-26T01:13:33;96019.94;;;10.70;46.29
13553;BME280;6847;48.830;9.116;2024-02-26T01:16:18;95967.38;;;10.33;46.11
13553;BME280;6847;48.830;9.116;2024-02-26T01:19:03;96018.34;;;10.69;45.79
13553;BME280;6847;48.830;9.116;2024-02-26T01:21:49;95949.41;;;10.29;45.74
13553;BME280;6847;48.830;9.116;2024-02-26T01:24:34;96018.66;;;10.77;46.28
13553;BME280;6847;48.830;9.116;2024-02-26T01:27:21;96011.00;;;10.79;45.91
13553;BME280;6847;48.830;9.116;2024-02-26T01:30:11;96002.22;;;10.82;46.36
13553;BME280;6847;48.830;9.116;2024-02-26T01:32:56;95994.31;;;10.77;46.20
13553;BME280;6847;48.830;9.116;2024-02-26T01:35:42;96012.09;;;10.86;46.48
13553;BME280;6847;48.830;9.116;2024-02-26T01:38:27;96011.75;;;10.88;46.34
13553;BME280;6847;48.830;9.116;2024-02-26T01:41:13;96015.25;;;10.88;46.81
13553;BME280;6847;48.830;9.116;2024-02-26T01:44:00;96027.19;;;10.87;46.96
13553;BME280;6847;48.830;9.116;2024-02-26T01:46:46;96004.03;;;10.60;46.14
13553;BME280;6847;48.830;9.116;2024-02-26T01:49:31;96046.66;;;10.81;46.27
13553;BME280;6847;48.830;9.116;2024-02-26T01:52:18;96043.66;;;10.73;47.06
13553;BME280;6847;48.830;9.116;2024-02-26T01:55:04;96060.53;;;10.70;46.84
13553;BME280;6847;48.830;9.116;2024-02-26T01:57:51;96060.03;;;10.68;46.69
13553;BME280;6847;48.830;9.116;2024-02-26T02:00:48;96061.63;;;10.69;46.68
13553;BME280;6847;48.830;9.116;2024-02-26T02:03:33;96066.41;;;10.72;46.76
13553;BME280;6847;48.830;9.116;2024-02-26T02:06:19;96067.69;;;10.75;46.71
13553;BME280;6847;48.830;9.116;2024-02-26T02:09:04;96071.19;;;10.75;46.59
13553;BME280;6847;48.830;9.116;2024-02-26T02:11:51;96067.22;;;10.73;47.38
13553;BME280;6847;48.830;9.116;2024-02-26T02:14:37;96057.38;;;10.60;47.03
13553;BME280;6847;48.830;9.116;2024-02-26T02:17:25;96067.72;;;10.66;47.00
13553;BME280;6847;48.830;9.116;2024-02-26T02:20:15;96068.50;;;10.67;46.85
13553;BME280;6847;48.830;9.116;2024-02-26T02:23:05;96076.63;;;10.58;47.22
13553;BME280;6847;48.830;9.116;2024-02-26T02:25:52;96084.91;;;10.53;46.64
13553;BME280;6847;48.830;9.116;2024-02-26T02:28:39;96085.41;;;10.47;47.78
13553;BME280;6847;48.830;9.116;2024-02-26T02:31:26;96086.84;;;10.44;47.72
13553;BME280;6847;48.830;9.116;2024-02-26T02:34:12;96079.66;;;10.48;47.40
13553;BME280;6847;48.830;9.116;2024-02-26T02:36:59;96089.06;;;10.51;47.01
13553;BME280;6847;48.830;9.116;2024-02-26T02:39:46;96068.38;;;10.46;47.34
13553;BME280;6847;48.830;9.116;2024-02-26T02:42:32;96031.66;;;10.19;47.25
13553;BME280;6847;48.830;9.116;2024-02-26T02:45:18;96046.44;;;10.48;47.50
13553;BME280;6847;48.830;9.116;2024-02-26T02:48:04;95789.38;;;8.82;47.03
13553;BME280;6847;48.830;9.116;2024-02-26T02:50:50;96068.97;;;10.60;47.63
13553;BME280;6847;48.830;9.116;2024-02-26T02:53:35;96059.28;;;10.59;47.52
13553;BME280;6847;48.830;9.116;2024-02-26T02:56:22;96065.81;;;10.58;47.92
13553;BME280;6847;48.830;9.116;2024-02-26T02:59:07;96074.91;;;10.54;47.29
13553;BME280;6847;48.830;9.116;2024-02-26T03:01:52;96068.84;;;10.48;47.53
13553;BME280;6847;48.830;9.116;2024-02-26T03:04:38;96076.31;;;10.51;48.00
13553;BME280;6847;48.830;9.116;2024-02-26T03:07:23;96084.91;;;10.53;48.07
13553;BME280;6847;48.830;9.116;2024-02-26T03:10:10;96029.28;;;10.18;47.97
13553;BME280;6847;48.830;9.116;2024-02-26T03:12:57;96059.50;;;10.37;48.37
13553;BME280;6847;48.830;9.116;2024-02-26T03:15:43;96069.66;;;10.57;48.05
13553;BME280;6847;48.830;9.116;2024-02-26T03:18:28;96064.69;;;10.59;48.15
13553;BME280;6847;48.830;9.116;2024-02-26T03:21:14;96063.75;;;10.64;48.23
13553;BME280;6847;48.830;9.116;2024-02-26T03:24:00;96013.03;;;10.35;48.02
13553;BME280;6847;48.830;9.116;2024-02-26T03:26:47;96061.16;;;10.67;48.45
13553;BME280;6847;48.830;9.116;2024-02-26T03:29:35;96057.03;;;10.70;47.91
13553;BME280;6847;48.830;9.116;2024-02-26T03:32:24;96030.66;;;10.50;48.20
13553;BME280;6847;48.830;9.116;2024-02-26T03:35:10;96052.56;;;10.74;48.78
13553;BME280;6847;48.830;9.116;2024-02-26T03:37:58;96044.47;;;10.65;48.78
13553;BME280;6847;48.830;9.116;2024-02-26T03:40:44;95993.63;;;10.33;48.22
13553;BME280;6847;48.830;9.116;2024-02-26T03:43:29;96036.91;;;10.88;48.02
13553;BME280;6847;48.830;9.116;2024-02-26T03:46:16;96030.69;;;10.88;48.18
13553;BME280;6847;48.830;9.116;2024-02-26T03:49:04;96024.34;;;10.84;48.11
13553;BME280;6847;48.830;9.116;2024-02-26T03:51:51;96015.75;;;10.82;48.57
13553;BME280;6847;48.830;9.116;2024-02-26T03:54:36;96014.97;;;10.81;48.90
13553;BME280;6847;48.830;9.116;2024-02-26T03:57:21;95972.09;;;10.54;48.90
13553;BME280;6847;48.830;9.116;2024-02-26T04:00:08;96020.88;;;10.74;49.07
13553;BME280;6847;48.830;9.116;2024-02-26T04:02:55;96018.34;;;10.69;48.95
13553;BME280;6847;48.830;9.116;2024-02-26T04:05:41;96021.53;;;10.71;48.73
13553;BME280;6847;48.830;9.116;2024-02-26T04:08:26;96008.03;;;10.63;48.86
13553;BME280;6847;48.830;9.116;2024-02-26T04:11:11;95976.09;;;10.39;48.60
13553;BME280;6847;48.830;9.116;2024-02-26T04:13:57;96028.25;;;10.65;49.85
13553;BME280;6847;48.830;9.116;2024-02-26T04:16:43;96015.66;;;10.61;49.57
13553;BME280;6847;48.830;9.116;2024-02-26T04:19:30;96004.72;;;10.57;49.78
13553;BME280;6847;48.830;9.116;2024-02-26T04:22:15;96010.75;;;10.54;49.54
13553;BME280;6847;48.830;9.116;2024-02-26T04:25:04;95998.97;;;10.50;49.06
13553;BME280;6847;48.830;9.116;2024-02-26T04:27:54;95993.75;;;10.45;49.25
13553;BME280;6847;48.830;9.116;2024-02-26T04:30:39;95957.22;;;10.13;49.97
13553;BME280;6847;48.830;9.116;2024-02-26T04:33:24;95962.13;;;10.20;49.55
13553;BME280;6847;48.830;9.116;2024-02-26T04:36:16;95959.13;;;10.13;49.45
13553;BME280;6847;48.830;9.116;2024-02-26T04:39:01;96005.22;;;10.33;49.05
13553;BME280;6847;48.830;9.116;2024-02-26T04:41:48;95996.19;;;10.03;49.66
13553;BME280;6847;48.830;9.116;2024-02-26T04:44:33;96043.91;;;10.34;49.73
13553;BME280;6847;48.830;9.116;2024-02-26T04:47:20;96044.69;;;10.34;49.64
13553;BME280;6847;48.830;9.116;2024-02-26T04:50:07;96044.38;;;10.36;49.64
13553;BME280;6847;48.830;9.116;2024-02-26T04:52:54;96034.97;;;10.42;48.91
13553;BME280;6847;48.830;9.116;2024-02-26T04:55:43;96026.03;;;10.50;49.18
13553;BME280;6847;48.830;9.116;2024-02-26T04:58:28;96031.28;;;10.55;49.47
13553;BME280;6847;48.830;9.116;2024-02-26T05:01:14;95981.22;;;10.32;49.62
13553;BME280;6847;48.830;9.116;2024-02-26T05:04:01;96007.56;;;10.52;48.75
13553;BME280;6847;48.830;9.116;2024-02-26T05:06:48;96007.56;;;10.52;49.44
13553;BME280;6847;48.830;9.116;2024-02-26T05:09:36;96032.34;;;10.71;48.54
13553;BME280;6847;48.830;9.116;2024-02-26T05:12:25;95975.66;;;10.37;49.39
13553;BME280;6847;48.830;9.116;2024-02-26T05:15:11;96038.84;;;10.79;48.54
13553;BME280;6847;48.830;9.116;2024-02-26T05:18:02;96012.81;;;10.66;48.76
13553;BME280;6847;48.830;9.116;2024-02-26T05:20:48;96017.53;;;10.69;49.02
13553;BME280;6847;48.830;9.116;2024-02-26T05:23:35;96051.72;;;10.91;48.62
13553;BME280;6847;48.830;9.116;2024-02-26T05:26:25;96051.19;;;10.97;49.29
13553;BME280;6847;48.830;9.116;2024-02-26T05:29:11;96046.09;;;11.04;48.81
13553;BME280;6847;48.830;9.116;2024-02-26T05:31:57;96058.66;;;11.09;48.80
13553;BME280;6847;48.830;9.116;2024-02-26T05:34:44;96056.41;;;11.11;49.27
13553;BME280;6847;48.830;9.116;2024-02-26T05:37:29;96066.59;;;11.14;49.09
13553;BME280;6847;48.830;9.116;2024-02-26T05:40:15;95995.59;;;10.62;49.12
13553;BME280;6847;48.830;9.116;2024-02-26T05:43:01;96091.91;;;11.18;49.31
13553;BME280;6847;48.830;9.116;2024-02-26T05:45:47;96088.91;;;11.11;48.86
13553;BME280;6847;48.830;9.116;2024-02-26T05:48:33;96078.16;;;10.94;49.02
13553;BME280;6847;48.830;9.116;2024-02-26T05:51:19;96098.03;;;10.98;49.69
13553;BME280;6847;48.830;9.116;2024-02-26T05:54:04;96051.47;;;10.66;48.77
13553;BME280;6847;48.830;9.116;2024-02-26T05:56:49;96104.22;;;10.98;48.94
13553;BME280;6847;48.830;9.116;2024-02-26T05:59:38;96101.22;;;11.00;49.24
13553;BME280;6847;48.830;9.116;2024-02-26T06:02:23;96103.59;;;11.01;48.97
13553;BME280;6847;48.830;9.116;2024-02-26T06:05:09;96112.53;;;11.02;49.28
13553;BME280;6847;48.830;9.116;2024-02-26T06:07:55;95993.63;;;10.33;48.93
13553;BME280;6847;48.830;9.116;2024-02-26T06:10:41;96090.84;;;11.02;49.14
13553;BME280;6847;48.830;9.116;2024-02-26T06:13:26;96096.09;;;11.07;49.03
13553;BME280;6847;48.830;9.116;2024-02-26T06:16:13;96086.75;;;10.96;49.45
13553;BME280;6847;48.830;9.116;2024-02-26T06:19:00;96100.41;;;10.99;49.37
13553;BME280;6847;48.830;9.116;2024-02-26T06:21:45;96100.72;;;10.98;48.71
13553;BME280;6847;48.830;9.116;2024-02-26T06:24:31;96107.59;;;10.95;49.24
13553;BME280;6847;48.830;9.116;2024-02-26T06:27:23;96117.47;;;10.91;49.69
13553;BME280;6847;48.830;9.116;2024-02-26T06:30:09;96109.69;;;10.90;50.00
13553;BME280;6847;48.830;9.116;2024-02-26T06:32:56;96096.63;;;10.92;49.05
13553;BME280;6847;48.830;9.116;2024-02-26T06:35:43;96103.63;;;10.93;48.96
13553;BME280;6847;48.830;9.116;2024-02-26T06:38:29;96115.09;;;10.90;49.79
13553;BME280;6847;48.830;9.116;2024-02-26T06:41:15;96110.97;;;10.84;50.18
13553;BME280;6847;48.830;9.116;2024-02-26T06:44:04;96111.47;;;10.86;49.87
13553;BME280;6847;48.830;9.116;2024-02-26T06:46:49;96118.78;;;10.85;49.20
13553;BME280;6847;48.830;9.116;2024-02-26T06:49:40;96119.56;;;10.86;49.52
13553;BME280;6847;48.830;9.116;2024-02-26T06:52:28;96124.50;;;10.84;50.21
13553;BME280;6847;48.830;9.116;2024-02-26T06:55:14;96127.69;;;10.86;49.66
13553;BME280;6847;48.830;9.116;2024-02-26T06:57:59;96136.63;;;10.86;49.42
13553;BME280;6847;48.830;9.116;2024-02-26T07:00:49;96140.72;;;10.92;49.56
13553;BME280;6847;48.830;9.116;2024-02-26T07:03:34;96142.00;;;10.95;50.27
13553;BME280;6847;48.830;9.116;2024-02-26T07:06:24;96147.88;;;10.97;49.89
13553;BME280;6847;48.830;9.116;2024-02-26T07:09:10;96159.66;;;11.01;50.63
13553;BME280;6847;48.830;9.116;2024-02-26T07:11:56;96156.81;;;11.06;50.19
13553;BME280;6847;48.830;9.116;2024-02-26T07:14:41;96081.38;;;10.70;49.77
13553;BME280;6847;48.830;9.116;2024-02-26T07:17:27;96169.00;;;11.21;50.63
13553;BME280;6847;48.830;9.116;2024-02-26T07:20:14;96159.94;;;11.17;49.96
13553;BME280;6847;48.830;9.116;2024-02-26T07:23:01;96177.75;;;11.26;49.53
13553;BME280;6847;48.830;9.116;2024-02-26T07:25:47;96172.66;;;11.33;50.28
13553;BME280;6847;48.830;9.116;2024-02-26T07:28:36;96144.16;;;11.19;49.83
13553;BME280;6847;48.830;9.116;2024-02-26T07:31:22;96172.31;;;11.43;50.16
13553;BME280;6847;48.830;9.116;2024-02-26T07:34:08;96177.06;;;11.46;50.40
13553;BME280;6847;48.830;9.116;2024-02-26T07:36:54;96154.97;;;11.36;49.73
13553;BME280;6847;48.830;9.116;2024-02-26T07:39:41;96160.66;;;11.43;49.85
13553;BME280;6847;48.830;9.116;2024-02-26T07:42:27;96169.41;;;11.48;50.24
13553;BME280;6847;48.830;9.116;2024-02-26T07:45:13;96164.00;;;11.40;50.56
13553;BME280;6847;48.830;9.116;2024-02-26T07:47:59;96182.94;;;11.48;50.24
13553;BME280;6847;48.830;9.116;2024-02-26T07:50:44;96181.84;;;11.49;49.97
13553;BME280;6847;48.830;9.116;2024-02-26T07:53:31;96181.03;;;11.49;49.78
13553;BME280;6847;48.830;9.116;2024-02-26T07:56:18;96184.38;;;11.55;50.50
13553;BME280;6847;48.830;9.116;2024-02-26T07:59:03;96153.03;;;11.36;50.18
13553;BME280;6847;48.830;9.116;2024-02-26T08:01:49;96091.00;;;11.05;50.03
13553;BME280;6847;48.830;9.116;2024-02-26T08:04:35;96183.34;;;11.68;50.08
13553;BME280;6847;48.830;9.116;2024-02-26T08:07:21;96187.31;;;11.70;50.13
13553;BME280;6847;48.830;9.116;2024-02-26T08:10:08;96172.84;;;11.75;50.86
13553;BME280;6847;48.830;9.116;2024-02-26T08:12:55;96174.25;;;11.81;50.47
13553;BME280;6847;48.830;9.116;2024-02-26T08:15:48;96177.22;;;11.88;50.56
13553;BME280;6847;48.830;9.116;2024-02-26T08:18:33;96176.59;;;11.91;49.75
13553;BME280;6847;48.830;9.116;2024-02-26T08:21:19;96167.31;;;11.92;50.20
13553;BME280;6847;48.830;9.116;2024-02-26T08:24:05;96121.69;;;11.65;50.46
13553;BME280;6847;48.830;9.116;2024-02-26T08:26:55;96173.81;;;12.00;50.27
13553;BME280;6847;48.830;9.116;2024-02-26T08:29:43;96170.13;;;12.04;50.18
13553;BME280;6847;48.830;9.116;2024-02-26T08:32:29;96111.25;;;11.84;50.08
13553;BME280;6847;48.830;9.116;2024-02-26T08:35:15;96178.88;;;12.31;50.33
13553;BME280;6847;48.830;9.116;2024-02-26T08:38:04;96181.22;;;12.41;50.23
13553;BME280;6847;48.830;9.116;2024-02-26T08:40:49;96182.84;;;12.54;49.69
13553;BME280;6847;48.830;9.116;2024-02-26T08:43:35;96177.09;;;12.55;50.30
13553;BME280;6847;48.830;9.116;2024-02-26T08:46:21;96199.69;;;12.68;50.06
13553;BME280;6847;48.830;9.116;2024-02-26T08:49:09;96204.66;;;12.66;49.96
13553;BME280;6847;48.830;9.116;2024-02-26T08:51:54;96212.13;;;12.69;50.28
13553;BME280;6847;48.830;9.116;2024-02-26T08:54:39;96204.38;;;12.80;49.86
13553;BME280;6847;48.830;9.116;2024-02-26T08:57:25;96196.81;;;12.85;50.28
13553;BME280;6847;48.830;9.116;2024-02-26T09:00:12;96196.88;;;12.97;49.57
13553;BME280;6847;48.830;9.116;2024-02-26T09:03:02;96204.69;;;12.99;49.78
13553;BME280;6847;48.830;9.116;2024-02-26T09:05:49;96178.59;;;12.86;49.53
13553;BME280;6847;48.830;9.116;2024-02-26T09:08:34;96212.28;;;13.06;49.29
13553;BME280;6847;48.830;9.116;2024-02-26T09:11:20;96210.38;;;13.06;49.19
13553;BME280;6847;48.830;9.116;2024-02-26T09:14:06;96216.03;;;13.01;49.51
13553;BME280;6847;48.830;9.116;2024-02-26T09:16:53;96215.00;;;13.06;49.22
13553;BME280;6847;48.830;9.116;2024-02-26T09:19:41;96205.09;;;13.10;49.53
13553;BME280;6847;48.830;9.116;2024-02-26T09:22:28;96212.88;;;13.32;49.60
13553;BME280;6847;48.830;9.116;2024-02-26T09:25:14;96201.69;;;13.46;49.41
13553;BME280;6847;48.830;9.116;2024-02-26T09:28:01;96195.97;;;13.59;48.95
13553;BME280;6847;48.830;9.116;2024-02-26T09:30:47;96175.53;;;13.53;48.98
13553;BME280;6847;48.830;9.116;2024-02-26T09:33:36;96205.50;;;13.78;48.69
13553;BME280;6847;48.830;9.116;2024-02-26T09:36:26;96177.72;;;13.60;48.95
13553;BME280;6847;48.830;9.116;2024-02-26T09:39:11;96204.59;;;13.86;48.90
13553;BME280;6847;48.830;9.116;2024-02-26T09:42:09;96195.31;;;13.87;48.94
13553;BME280;6847;48.830;9.116;2024-02-26T09:45:00;96215.94;;;13.88;48.71
13553;BME280;6847;48.830;9.116;2024-02-26T09:47:48;96216.94;;;13.83;49.04
13553;BME280;6847;48.830;9.116;2024-02-26T09:50:35;96212.50;;;13.91;49.02
13553;BME280;6847;48.830;9.116;2024-02-26T09:53:22;96182.38;;;13.96;48.51
13553;BME280;6847;48.830;9.116;2024-02-26T09:56:10;96184.63;;;14.18;48.56
13553;BME280;6847;48.830;9.116;2024-02-26T09:59:01;96217.59;;;14.77;48.39
13553;BME280;6847;48.830;9.116;2024-02-26T10:01:48;96154.50;;;14.63;47.97
13553;BME280;6847;48.830;9.116;2024-02-26T10:04:34;96150.00;;;14.83;47.69
13553;BME280;6847;48.830;9.116;2024-02-26T10:07:19;96226.69;;;15.53;47.79
13553;BME280;6847;48.830;9.116;2024-02-26T10:10:06;96228.94;;;16.10;47.03
13553;BME280;6847;48.830;9.116;2024-02-26T10:12:51;96238.66;;;16.58;46.88
13553;BME280;6847;48.830;9.116;2024-02-26T10:15:39;96243.06;;;16.98;46.25
13553;BME280;6847;48.830;9.116;2024-02-26T10:18:24;96238.03;;;17.58;45.77
13553;BME280;6847;48.830;9.116;2024-02-26T10:21:10;96234.34;;;18.38;44.87
13553;BME280;6847;48.830;9.116;2024-02-26T10:23:55;96242.69;;;18.71;44.68
13553;BME280;6847;48.830;9.116;2024-02-26T10:26:45;96250.34;;;19.15;44.30
13553;BME280;6847;48.830;9.116;2024-02-26T10:29:32;96227.56;;;19.11;44.57
13553;BME280;6847;48.830;9.116;2024-02-26T10:32:19;96241.69;;;19.13;45.08
13553;BME280;6847;48.830;9.116;2024-02-26T10:35:08;96235.94;;;18.92;45.34
13553;BME280;6847;48.830;9.116;2024-02-26T10:37:53;96213.06;;;18.80;45.37
13553;BME280;6847;48.830;9.116;2024-02-26T10:40:39;96223.91;;;19.00;45.33
13553;BME280;6847;48.830;9.116;2024-02-26T10:43:25;96250.94;;;19.31;45.22
13553;BME280;6847;48.830;9.116;2024-02-26T10:46:10;96244.06;;;19.44;44.89
13553;BME280;6847;48.830;9.116;2024-02-26T10:48:58;96247.75;;;19.55;44.63
13553;BME280;6847;48.830;9.116;2024-02-26T10:51:45;96252.56;;;19.66;44.62
13553;BME280;6847;48.830;9.116;2024-02-26T10:54:32;96197.59;;;19.58;44.37
13553;BME280;6847;48.830;9.116;2024-02-26T10:57:18;96262.53;;;20.21;43.97
13553;BME280;6847;48.830;9.116;2024-02-26T11:00:05;96255.78;;;20.56;43.49
13553;BME280;6847;48.830;9.116;2024-02-26T11:02:56;96255.31;;;21.09;42.93
13553;BME280;6847;48.830;9.116;2024-02-26T11:05:47;96224.78;;;21.31;42.33
13553;BME280;6847;48.830;9.116;2024-02-26T11:08:37;96257.53;;;21.61;42.24
13553;BME280;6847;48.830;9.116;2024-02-26T11:11:27;96267.47;;;21.91;41.89
13553;BME280;6847;48.830;9.116;2024-02-26T11:14:18;96272.25;;;22.11;41.61
13553;BME280;6847;48.830;9.116;2024-02-26T11:17:05;96264.41;;;22.28;41.24
13553;BME280;6847;48.830;9.116;2024-02-26T11:19:51;96269.50;;;22.65;41.17
13553;BME280;6847;48.830;9.116;2024-02-26T11:22:46;96213.94;;;22.73;40.50
13553;BME280;6847;48.830;9.116;2024-02-26T11:25:32;96262.66;;;23.47;40.18
13553;BME280;6847;48.830;9.116;2024-02-26T11:28:19;96262.97;;;23.74;39.97
13553;BME280;6847;48.830;9.116;2024-02-26T11:31:06;96266.22;;;23.55;40.34
13553;BME280;6847;48.830;9.116;2024-02-26T11:33:56;96272.28;;;23.00;40.75
13553;BME280;6847;48.830;9.116;2024-02-26T11:36:42;96263.59;;;22.45;41.37
13553;BME280;6847;48.830;9.116;2024-02-26T11:39:31;96258.06;;;22.02;41.63
13553;BME280;6847;48.830;9.116;2024-02-26T11:42:23;96263.56;;;21.99;41.52
13553;BME280;6847;48.830;9.116;2024-02-26T11:48:36;96268.97;;;23.51;39.54
13553;BME280;6847;48.830;9.116;2024-02-26T11:51:26;96275.94;;;24.50;38.66
13553;BME280;6847;48.830;9.116;2024-02-26T11:54:43;96284.50;;;25.11;37.84
13553;BME280;6847;48.830;9.116;2024-02-26T11:57:37;96278.97;;;25.11;37.93
13553;BME280;6847;48.830;9.116;2024-02-26T12:00:24;96283.50;;;24.91;38.35
13553;BME280;6847;48.830;9.116;2024-02-26T12:03:09;96276.97;;;25.15;38.00
13553;BME280;6847;48.830;9.116;2024-02-26T12:05:56;96273.81;;;25.47;37.55
13553;BME280;6847;48.830;9.116;2024-02-26T12:08:44;96265.88;;;25.49;37.90
13553;BME280;6847;48.830;9.116;2024-02-26T12:11:30;96277.25;;;25.24;37.90
13553;BME280;6847;48.830;9.116;2024-02-26T12:14:17;96273.59;;;24.90;38.44
13553;BME280;6847;48.830;9.116;2024-02-26T12:17:04;96244.97;;;24.14;38.79
13553;BME280;6847;48.830;9.116;2024-02-26T12:19:52;96284.66;;;23.79;39.12
13553;BME280;6847;48.830;9.116;2024-02-26T12:22:41;96288.81;;;23.07;39.75
13553;BME280;6847;48.830;9.116;2024-02-26T12:25:31;96286.06;;;22.58;39.96
13553;BME280;6847;48.830;9.116;2024-02-26T12:28:25;96288.78;;;22.08;40.18
13553;BME280;6847;48.830;9.116;2024-02-26T12:31:14;96288.63;;;21.62;40.44
13553;BME280;6847;48.830;9.116;2024-02-26T12:34:01;96284.50;;;21.20;40.35
13553;BME280;6847;48.830;9.116;2024-02-26T12:36:46;96286.34;;;21.02;40.41
13553;BME280;6847;48.830;9.116;2024-02-26T12:39:31;96285.41;;;20.80;40.20
13553;BME280;6847;48.830;9.116;2024-02-26T12:42:16;96286.81;;;20.60;40.08
13553;BME280;6847;48.830;9.116;2024-02-26T12:45:03;96288.63;;;20.42;39.69
13553;BME280;6847;48.830;9.116;2024-02-26T12:47:53;96286.84;;;20.19;39.97
13553;BME280;6847;48.830;9.116;2024-02-26T12:50:44;96284.38;;;20.07;39.77
13553;BME280;6847;48.830;9.116;2024-02-26T12:53:30;96275.44;;;19.80;39.97
13553;BME280;6847;48.830;9.116;2024-02-26T12:56:16;96288.88;;;19.89;39.81
13553;BME280;6847;48.830;9.116;2024-02-26T12:59:03;96296.78;;;19.94;39.77
13553;BME280;6847;48.830;9.116;2024-02-26T13:01:50;96289.66;;;19.86;39.72
13553;BME280;6847;48.830;9.116;2024-02-26T13:04:39;96301.53;;;19.97;39.53
13553;BME280;6847;48.830;9.116;2024-02-26T13:07:25;96299.69;;;20.08;39.32
13553;BME280;6847;48.830;9.116;2024-02-26T13:10:10;96276.53;;;20.09;39.10
13553;BME280;6847;48.830;9.116;2024-02-26T13:13:04;96302.75;;;20.37;39.13
13553;BME280;6847;48.830;9.116;2024-02-26T13:15:50;96219.19;;;20.04;38.77
13553;BME280;6847;48.830;9.116;2024-02-26T13:18:54;96303.13;;;20.86;38.63
13553;BME280;6847;48.830;9.116;2024-02-26T13:21:40;96257.94;;;20.87;38.33
13553;BME280;6847;48.830;9.116;2024-02-26T13:24:27;96295.63;;;21.45;38.10
13553;BME280;6847;48.830;9.116;2024-02-26T13:27:21;96301.22;;;21.66;38.06
13553;BME280;6847;48.830;9.116;2024-02-26T13:30:13;96281.56;;;21.68;38.10
13553;BME280;6847;48.830;9.116;2024-02-26T13:33:07;96302.19;;;22.13;37.88
13553;BME280;6847;48.830;9.116;2024-02-26T13:36:10;96251.00;;;22.19;37.61
13553;BME280;6847;48.830;9.116;2024-02-26T13:38:58;96310.91;;;22.86;37.37
13553;BME280;6847;48.830;9.116;2024-02-26T13:41:49;96300.69;;;22.90;37.27
13553;BME280;6847;48.830;9.116;2024-02-26T13:44:35;96309.34;;;22.99;37.51
13553;BME280;6847;48.830;9.116;2024-02-26T13:47:23;96312.88;;;22.96;37.33
13553;BME280;6847;48.830;9.116;2024-02-26T13:50:09;96312.50;;;22.91;37.46
13553;BME280;6847;48.830;9.116;2024-02-26T13:53:11;96318.78;;;22.95;37.39
13553;BME280;6847;48.830;9.116;2024-02-26T13:55:58;96281.72;;;22.64;37.40
13553;BME280;6847;48.830;9.116;2024-02-26T13:58:45;96313.28;;;22.77;37.35
13553;BME280;6847;48.830;9.116;2024-02-26T14:01:33;96316.00;;;22.56;37.64
13553;BME280;6847;48.830;9.116;2024-02-26T14:04:23;96319.50;;;22.24;37.61
13553;BME280;6847;48.830;9.116;2024-02-26T14:07:15;96321.09;;;22.18;37.70
13553;BME280;6847;48.830;9.116;2024-02-26T14:10:02;96312.47;;;22.37;37.58
13553;BME280;6847;48.830;9.116;2024-02-26T14:12:50;96308.53;;;22.60;37.28
13553;BME280;6847;48.830;9.116;2024-02-26T14:15:37;96315.63;;;22.68;37.21
13553;BME280;6847;48.830;9.116;2024-02-26T14:18:30;96323.53;;;22.87;37.17
13553;BME280;6847;48.830;9.116;2024-02-26T14:21:15;96318.00;;;22.94;36.69
13553;BME280;6847;48.830;9.116;2024-02-26T14:24:04;96319.59;;;22.99;37.06
13553;BME280;6847;48.830;9.116;2024-02-26T14:26:54;96316.81;;;22.99;36.80
13553;BME280;6847;48.830;9.116;2024-02-26T14:29:39;96291.59;;;22.65;37.01
13553;BME280;6847;48.830;9.116;2024-02-26T14:32:27;96293.56;;;22.39;37.29
13553;BME280;6847;48.830;9.116;2024-02-26T14:35:21;96315.63;;;22.61;37.00
13553;BME280;6847;48.830;9.116;2024-02-26T14:38:06;96329.03;;;22.94;36.82
13553;BME280;6847;48.830;9.116;2024-02-26T14:40:52;96317.13;;;23.47;36.39
13553;BME280;6847;48.830;9.116;2024-02-26T14:43:47;96316.94;;;23.96;36.06
13553;BME280;6847;48.830;9.116;2024-02-26T14:46:32;96317.94;;;24.31;35.94
13553;BME280;6847;48.830;9.116;2024-02-26T14:49:18;96315.66;;;24.19;36.10
13553;BME280;6847;48.830;9.116;2024-02-26T14:52:04;96319.28;;;24.02;36.12
13553;BME280;6847;48.830;9.116;2024-02-26T14:54:54;96316.69;;;23.66;36.41
13553;BME280;6847;48.830;9.116;2024-02-26T14:57:39;96313.22;;;23.23;36.53
13553;BME280;6847;48.830;9.116;2024-02-26T15:00:33;96322.75;;;22.83;36.71